Flight Track Log - Related Links

Times and Time Zones

All times are in EST time to prevent confusion due to time zone crossing. See the DAL3698 flight status page for this flight to view local times or setup timezone preferences in your user account.

Time Position Orientation Groundspeed Altitude Reporting Facility
EST Latitude Longitude Course Direction KTS MPH feet Rate Location/Type
Tue 08:57:36 AM 42.2081 -83.3675 210° Southwest 149 171 1,400  Level Cleveland Center
Tue 08:58:37 AM 42.1658 -83.4008 210° Southwest 191 220 3,900 1,976 Climbing Cleveland Center
Tue 08:58:58 AM 42.1586 -83.4072 213° Southwest 184 212 4,100 2,602 Climbing Cleveland Center
Tue 09:00:00 AM 42.0944 -83.4533 208° Southwest 225 259 7,500 3,097 Climbing Cleveland Center
Tue 09:01:02 AM 42.0378 -83.4914 207° Southwest 231 266 10,500 2,129 Climbing Cleveland Center
Tue 09:02:04 AM 41.9817 -83.5417 214° Southwest 236 272 11,900 1,548 Climbing Cleveland Center
Tue 09:03:06 AM 41.9011 -83.6064 211° Southwest 295 339 13,700 1,742 Climbing Cleveland Center
Tue 09:04:08 AM 41.8250 -83.6719 213° Southwest 320 368 15,500 1,839 Climbing Cleveland Center
Tue 09:05:10 AM 41.7469 -83.7375 212° Southwest 326 375 17,500 1,645 Climbing Cleveland Center
Tue 09:06:12 AM 41.6692 -83.8036 212° Southwest 329 379 18,900 1,210 Climbing Cleveland Center
Tue 09:07:14 AM 41.5881 -83.8664 210° Southwest 332 382 20,000 532 Climbing Cleveland Center
Tue 09:08:16 AM 41.5042 -83.9311 210° Southwest 344 396 20,000  Level Cleveland Center
Tue 09:09:18 AM 41.4042 -84.0106 211° Southwest 348 400 20,000  Level Cleveland Center
Tue 09:10:20 AM 41.3197 -84.0761 210° Southwest 349 402 20,000  Level Cleveland Center
Tue 09:11:23 AM 41.2436 -84.1539 218° Southwest 358 412 20,000  Level Cleveland Center
Tue 09:12:25 AM 41.2167 -84.2692 253° West 332 382 20,000  Level Cleveland Center
Tue 09:13:27 AM 41.1869 -84.3847 251° West 331 381 20,000  Level Cleveland Center
Tue 09:14:29 AM 41.1583 -84.4997 252° West 331 381 20,000  Level Cleveland Center
Tue 09:15:31 AM 41.1269 -84.6153 250° West 331 381 20,000  Level Cleveland Center
Tue 09:16:32 AM 41.0894 -84.7536 250° West 331 381 20,000  Level Cleveland Center
Tue 09:17:50 AM 40.9839 -84.8453 213° Southwest 353 406 20,000  Level Indianapolis Center
Tue 09:18:52 AM 40.8989 -84.9083 209° Southwest 352 405 20,000  Level Indianapolis Center
Tue 09:19:53 AM 40.8086 -84.9750 209° Southwest 352 405 20,000  Level Indianapolis Center
Tue 09:20:55 AM 40.7233 -85.0375 209° Southwest 352 405 20,000  Level Indianapolis Center
Tue 09:21:57 AM 40.6372 -85.1033 210° Southwest 353 406 20,000  Level Indianapolis Center
Tue 09:23:06 AM 40.5511 -85.2014 221° Southwest 348 400 20,000  Level Chicago Center
Tue 09:24:08 AM 40.4767 -85.2844 220° Southwest 349 402 20,000  Level Chicago Center
Tue 09:25:10 AM 40.4033 -85.3686 221° Southwest 350 403 20,000 -835 Level Chicago Center
Tue 09:26:03 AM 40.3436 -85.4383 222° Southwest 351 404 18,400 -2,087 Descending Indianapolis Center
Tue 09:27:05 AM 40.2606 -85.5383 223° Southwest 343 395 16,000 -2,274 Descending Indianapolis Center
Tue 09:28:07 AM 40.1922 -85.6117 219° Southwest 326 375 13,700 -2,081 Descending Indianapolis Center
Tue 09:29:09 AM 40.1247 -85.6861 220° Southwest 322 371 11,700 -1,756 Descending Indianapolis Center
Tue 09:30:10 AM 40.0775 -85.7725 234° Southwest 301 346 10,100 -1,024 Descending Indianapolis Center
Tue 09:31:12 AM 40.0389 -85.8564 239° Southwest 277 319 9,600 -1,016 Descending Indianapolis Center
Tue 09:32:14 AM 39.9975 -85.9225 231° Southwest 246 283 8,000 -1,512 Descending Indianapolis Center
Tue 09:33:15 AM 39.9492 -85.9847 225° Southwest 245 282 6,500 -1,512 Descending Indianapolis Center
Tue 09:34:17 AM 39.8922 -86.0589 225° Southwest 245 282 4,900 -1,210 Descending Indianapolis Center
Tue 09:35:19 AM 39.8478 -86.1172 225° Southwest 239 275 4,000 -726 Descending Indianapolis Center
Tue 09:36:21 AM 39.8081 -86.1664 224° Southwest 218 251 3,400 -683 Descending Indianapolis Center
Tue 09:37:22 AM 39.7731 -86.2114 225° Southwest 195 224 2,600 -878 Descending Indianapolis Center
Tue 09:38:24 AM 39.7419 -86.2517 225° Southwest 172 198 1,600 -823 Descending Indianapolis Center
Tue 09:39:26 AM 39.7150 -86.2856 224° Southwest 146 168 900 -387 Descending Indianapolis Center
Tue 09:40:28 AM 39.7064 -86.2983 229° Southwest 86 99 800 -48 Descending Indianapolis Center
Tue 09:41:30 AM 39.7117 -86.2933 36° Northeast 44 51 800  Level Indianapolis Center
Tue 09:42:32 AM 39.7161 -86.2908 23° Northeast 39 45 800  Level Indianapolis Center

Login

Don't have an account? Register now (free) for customized features, flight alerts, and more!